Time;durP1;ratioP1;P1;durP2;ratioP2;P2;SDS_P1;SDS_P2;PMS_P1;PMS_P2;Temp;Humidity;BMP_temperature;BMP_pressure;BME280_temperature;BME280_humidity;BME280_pressure;Samples;Min_cycle;Max_cycle;Signal;HPM_P1;HPM_P2
2022/05/24 04:04:06;;;;;;;6.95;4.60;;;;;;;16.60;82.57;99953.84;5604438;31;77037;-59
2022/05/24 04:07:09;;;;;;;5.93;4.85;;;;;;;16.60;82.57;99953.84;5603603;31;33299;-59
2022/05/24 04:10:13;;;;;;;6.40;4.50;;;;;;;16.06;86.57;99953.75;5602793;31;33647;-58
2022/05/24 04:13:15;;;;;;;7.87;4.32;;;;;;;16.09;82.04;99953.09;5603364;31;33191;-59
2022/05/24 04:16:17;;;;;;;7.60;4.80;;;;;;;16.18;82.33;99963.84;5603310;31;33583;-59
2022/05/24 04:19:20;;;;;;;7.93;4.70;;;;;;;16.12;83.96;99962.44;5603403;31;33364;-59
2022/05/24 04:22:22;;;;;;;7.47;4.28;;;;;;;16.20;81.93;99978.63;5602794;31;34270;-59
2022/05/24 04:25:25;;;;;;;10.30;4.82;;;;;;;16.14;83.62;99976.44;5603379;31;34277;-59
2022/05/24 04:28:28;;;;;;;5.55;4.35;;;;;;;16.14;83.87;99971.81;5602927;31;33518;-59
2022/05/24 04:31:35;;;;;;;8.48;4.80;;;;;;;16.15;82.43;99969.91;5603034;31;33586;-59
2022/05/24 04:34:38;;;;;;;6.87;4.95;;;;;;;16.11;83.57;99972.47;5603104;31;34393;-59
2022/05/24 04:37:40;;;;;;;7.30;4.40;;;;;;;16.27;81.59;99974.62;5587407;31;33766;-58
2022/05/24 04:44:04;;;;;;;7.53;5.15;;;;;;;16.24;82.98;99981.47;5583099;31;33617;-56
2022/05/24 04:47:08;;;;;;;8.20;5.10;;;;;;;16.32;81.20;99977.91;5581386;31;33228;-56
2022/05/24 04:50:12;;;;;;;8.80;5.60;;;;;;;16.37;80.51;99976.94;5582999;32;33701;-56
2022/05/24 04:53:15;;;;;;;7.72;5.75;;;;;;;16.42;80.16;99982.16;5580113;32;33618;-56
2022/05/24 04:56:17;;;;;;;7.90;5.07;;;;;;;16.15;83.12;99988.84;5580022;32;33701;-56
2022/05/24 04:59:19;;;;;;;8.70;5.10;;;;;;;16.28;81.59;99995.91;5580468;32;33704;-56
2022/05/24 05:02:22;;;;;;;10.15;5.90;;;;;;;16.13;82.62;99999.22;5580967;32;33540;-57
2022/05/24 05:05:24;;;;;;;7.32;5.32;;;;;;;16.15;82.54;99994.25;5581643;31;33575;-57
2022/05/24 05:08:29;;;;;;;7.47;5.73;;;;;;;16.09;84.69;99985.56;5581814;31;33956;-56
2022/05/24 05:11:31;;;;;;;8.73;5.60;;;;;;;15.94;85.42;99986.88;5581831;31;33769;-56
2022/05/24 05:14:35;;;;;;;9.80;5.60;;;;;;;16.00;85.86;99984.00;5567987;32;33595;-56
2022/05/24 05:17:43;;;;;;;10.00;5.75;;;;;;;16.07;85.76;99982.38;5565533;32;34384;-56
2022/05/24 05:20:46;;;;;;;8.55;5.03;;;;;;;16.18;82.94;99983.56;5566653;32;33617;-55
2022/05/24 05:23:48;;;;;;;7.28;4.93;;;;;;;16.11;82.47;99994.13;5568182;32;33828;-59
2022/05/24 05:26:51;;;;;;;8.63;5.15;;;;;;;16.18;79.12;99999.00;5565725;32;34290;-58
2022/05/24 05:33:14;;;;;;;6.65;5.20;;;;;;;16.20;85.71;99991.38;5567533;32;34372;-59
2022/05/24 05:36:18;;;;;;;6.82;5.10;;;;;;;16.17;85.63;99986.63;5566179;32;33697;-59
2022/05/24 05:39:20;;;;;;;6.85;5.12;;;;;;;16.24;89.41;99986.88;5567022;32;33707;-58
2022/05/24 05:42:22;;;;;;;8.38;5.45;;;;;;;16.14;83.39;99993.47;5563611;32;33713;-59
2022/05/24 05:45:25;;;;;;;8.45;5.93;;;;;;;16.04;83.84;99991.13;5567703;32;33508;-58
2022/05/24 05:48:27;;;;;;;6.60;5.72;;;;;;;16.04;85.10;99999.25;5564384;32;33550;-59
2022/05/24 05:51:29;;;;;;;7.80;6.10;;;;;;;15.95;84.99;100003.88;5566599;32;33714;-59
2022/05/24 05:54:33;;;;;;;6.53;5.50;;;;;;;15.96;85.93;100006.28;5566964;32;34443;-59
2022/05/24 05:57:36;;;;;;;11.50;5.43;;;;;;;15.95;85.27;100010.09;5562649;32;33306;-59
2022/05/24 06:00:41;;;;;;;9.30;5.85;;;;;;;16.00;80.20;100009.13;5565898;32;33604;-59
2022/05/24 06:03:44;;;;;;;9.73;6.10;;;;;;;16.03;82.20;100008.47;5565690;32;33669;-59
2022/05/24 06:06:46;;;;;;;7.20;5.40;;;;;;;16.10;81.51;100008.75;5565468;32;34241;-59
2022/05/24 06:09:48;;;;;;;6.62;5.25;;;;;;;16.09;81.37;100011.78;5568581;32;34487;-60
2022/05/24 06:12:51;;;;;;;8.88;5.97;;;;;;;16.12;81.45;100021.94;5567075;32;34293;-59
2022/05/24 06:15:55;;;;;;;6.93;5.20;;;;;;;16.01;82.39;100018.03;5568340;32;33781;-59
2022/05/24 06:18:57;;;;;;;8.00;5.43;;;;;;;16.08;81.58;100018.31;5566838;32;33629;-59
2022/05/24 06:22:00;;;;;;;5.93;5.30;;;;;;;16.07;84.16;100016.72;5561627;32;33595;-58
2022/05/24 06:25:02;;;;;;;9.80;5.40;;;;;;;16.17;83.30;100002.84;5566145;32;33610;-59
2022/05/24 06:28:04;;;;;;;6.72;5.78;;;;;;;16.10;81.93;99997.94;5565736;32;34351;-59
2022/05/24 06:31:07;;;;;;;8.32;5.25;;;;;;;16.14;84.71;100003.50;5565229;32;33780;-59
2022/05/24 06:34:11;;;;;;;8.07;5.55;;;;;;;16.09;81.20;100000.97;5559000;32;34299;-58
2022/05/24 06:37:13;;;;;;;8.65;6.07;;;;;;;16.19;78.63;100000.59;5563083;32;33743;-59
2022/05/24 06:40:18;;;;;;;6.82;5.47;;;;;;;16.11;83.41;100004.13;5567321;32;33821;-59
2022/05/24 06:43:21;;;;;;;8.10;5.77;;;;;;;16.09;83.01;100009.06;5562599;32;34215;-59
2022/05/24 06:46:26;;;;;;;6.53;5.10;;;;;;;16.05;81.39;100003.53;5560844;32;34307;-59
2022/05/24 06:49:28;;;;;;;7.47;5.47;;;;;;;16.15;80.13;100003.16;5568726;32;33655;-59
2022/05/24 06:52:30;;;;;;;6.47;5.25;;;;;;;16.06;82.44;100010.53;5566738;32;33844;-59
2022/05/24 06:55:32;;;;;;;7.72;5.12;;;;;;;16.10;85.91;100018.78;5568040;32;34202;-59
2022/05/24 06:58:36;;;;;;;7.45;5.60;;;;;;;16.14;82.82;100017.78;5568289;32;34223;-58
2022/05/24 07:05:02;;;;;;;7.05;5.72;;;;;;;16.19;81.78;100017.63;5564024;32;33633;-59
2022/05/24 07:08:05;;;;;;;8.85;5.75;;;;;;;16.20;88.95;100021.13;5564017;32;33740;-58
2022/05/24 07:11:07;;;;;;;9.82;5.75;;;;;;;16.15;82.92;100022.09;5555545;32;33166;-59
2022/05/24 07:14:09;;;;;;;8.38;5.72;;;;;;;16.14;82.74;100019.72;5558405;32;33206;-58
2022/05/24 07:17:12;;;;;;;7.22;6.30;;;;;;;16.17;86.63;100021.78;5559249;32;33527;-58
2022/05/24 07:20:14;;;;;;;8.38;5.68;;;;;;;16.21;85.19;100015.38;5558533;32;34292;-59
2022/05/24 07:23:19;;;;;;;6.80;6.10;;;;;;;16.25;84.04;100022.84;5561049;32;34255;-59
2022/05/24 07:26:21;;;;;;;6.93;5.70;;;;;;;16.29;84.22;100016.47;5558372;32;34373;-59
2022/05/24 07:29:44;;;;;;;6.80;6.10;;;;;;;16.43;90.10;100019.72;5564629;32;33643;-59
2022/05/24 07:32:47;;;;;;;7.43;5.87;;;;;;;16.61;82.50;100009.56;5565862;32;33644;-59
2022/05/24 07:35:52;;;;;;;9.02;6.05;;;;;;;16.61;80.89;100003.34;5567217;32;33775;-59
2022/05/24 07:38:55;;;;;;;7.32;5.80;;;;;;;16.61;81.41;100006.06;5567327;32;33197;-59
2022/05/24 07:48:45;;;;;;;7.80;5.93;;;;;;;16.66;83.18;100019.41;5560559;32;34317;-59
2022/05/24 07:51:47;;;;;;;10.85;6.75;;;;;;;16.72;77.96;100014.56;5560703;32;33878;-58
2022/05/24 07:54:50;;;;;;;10.18;6.25;;;;;;;16.85;76.96;100006.25;5566471;32;34229;-59
2022/05/24 07:57:52;;;;;;;12.43;5.70;;;;;;;16.87;82.13;100014.00;5565078;32;33575;-58
2022/05/24 08:00:56;;;;;;;9.07;6.28;;;;;;;16.91;79.60;100007.59;5565904;32;33659;-59
2022/05/24 08:03:58;;;;;;;9.50;5.55;;;;;;;17.05;78.06;100010.06;5564485;32;33676;-59
2022/05/24 08:07:01;;;;;;;7.95;5.97;;;;;;;17.07;75.86;100012.41;5553902;32;33660;-59
2022/05/24 08:10:05;;;;;;;6.32;4.95;;;;;;;17.12;80.73;100017.63;5568291;32;34297;-59
2022/05/24 08:13:10;;;;;;;6.80;5.00;;;;;;;17.09;81.92;100015.59;5557692;32;33650;-58
2022/05/24 08:16:14;;;;;;;7.47;4.90;;;;;;;17.11;74.14;100016.81;5564375;32;33615;-58
2022/05/24 08:19:16;;;;;;;10.05;5.50;;;;;;;17.21;75.89;100020.25;5565263;32;34255;-59
2022/05/24 08:22:19;;;;;;;6.10;5.00;;;;;;;17.41;75.31;100015.91;5559934;32;33617;-59
2022/05/24 08:25:21;;;;;;;8.98;5.55;;;;;;;17.45;71.95;100016.81;5564160;32;33191;-58
2022/05/24 08:28:24;;;;;;;8.15;5.80;;;;;;;17.37;78.14;100016.56;5565342;32;33774;-59
2022/05/24 08:31:26;;;;;;;12.73;5.50;;;;;;;17.41;79.47;100022.12;5561135;32;33812;-59
2022/05/24 08:34:29;;;;;;;8.65;5.43;;;;;;;17.46;74.67;100011.06;5566170;32;34373;-59
2022/05/24 08:37:31;;;;;;;13.07;5.62;;;;;;;17.54;77.37;100012.09;5565715;31;33699;-59
2022/05/24 08:40:35;;;;;;;7.87;5.80;;;;;;;17.66;73.37;100016.75;5560857;32;33665;-59
2022/05/24 08:51:20;;;;;;;9.27;5.03;;;;;;;17.79;73.08;100013.75;5568403;32;34191;-59
2022/05/24 08:54:33;;;;;;;6.68;4.95;;;;;;;17.80;74.64;99999.06;5569378;32;34303;-59
2022/05/24 08:57:44;;;;;;;6.32;4.62;;;;;;;17.81;70.22;100005.28;5567230;32;33663;-58
2022/05/24 09:00:46;;;;;;;5.57;4.05;;;;;;;17.80;73.21;100004.50;5569055;32;34325;-59
2022/05/24 09:03:49;;;;;;;9.07;4.05;;;;;;;17.83;70.77;100011.94;5567254;32;33762;-59
2022/05/24 09:06:51;;;;;;;6.00;4.40;;;;;;;17.94;69.28;100003.37;5565127;32;33696;-59
2022/05/24 09:10:05;;;;;;;6.85;3.97;;;;;;;18.14;68.82;100001.66;5568213;32;34245;-59
2022/05/24 09:13:41;;;;;;;5.53;3.78;;;;;;;18.23;65.99;100003.13;5567792;32;33223;-58
2022/05/24 09:17:01;;;;;;;;;;;;;;;18.30;65.54;100003.34;5566572;32;34329;-59
2022/05/24 09:20:31;;;;;;;7.50;5.25;;;;;;;18.26;68.49;100007.88;5567256;32;34635;-59
2022/05/24 09:23:41;;;;;;;10.07;4.97;;;;;;;18.37;72.23;100008.22;5561577;32;33454;-58
2022/05/24 09:27:08;;;;;;;6.60;4.30;;;;;;;18.46;75.58;100021.66;5565657;32;32260;-59
2022/05/24 09:30:36;;;;;;;4.35;3.20;;;;;;;18.53;66.14;100017.22;5563975;32;34508;-58
2022/05/24 09:33:41;;;;;;;5.60;3.50;;;;;;;18.63;70.62;100007.81;5559871;32;34505;-59
2022/05/24 09:37:28;;;;;;;5.70;3.22;;;;;;;18.57;72.80;100011.91;5567483;32;34286;-59
2022/05/24 09:40:44;;;;;;;4.55;3.53;;;;;;;18.68;67.00;100015.75;5552392;31;33736;-59
2022/05/24 09:44:00;;;;;;;8.27;3.12;;;;;;;18.70;68.34;100012.66;5566954;32;33681;-58
2022/05/24 09:47:03;;;;;;;7.00;3.37;;;;;;;18.86;67.99;100010.06;5550706;32;33234;-59
2022/05/24 09:50:36;;;;;;;4.15;3.40;;;;;;;19.04;69.46;100015.97;5554792;32;34226;-59
2022/05/24 09:53:52;;;;;;;4.62;3.10;;;;;;;19.14;64.24;100004.62;5550702;32;33609;-59
2022/05/24 09:57:08;;;;;;;5.53;3.40;;;;;;;19.23;67.26;100016.91;5563063;32;33471;-59
2022/05/24 10:00:20;;;;;;;5.03;3.70;;;;;;;19.37;66.16;100013.00;5567884;32;34315;-59
2022/05/24 10:03:47;;;;;;;5.20;3.53;;;;;;;19.63;64.19;100004.34;5562099;32;33612;-59
2022/05/24 10:06:55;;;;;;;4.43;3.55;;;;;;;19.76;62.65;100013.25;5559247;32;33907;-58
2022/05/24 10:10:12;;;;;;;6.68;3.85;;;;;;;19.81;67.78;100010.28;5567381;32;34353;-58
2022/05/24 10:13:51;;;;;;;5.68;3.20;;;;;;;20.03;65.13;100019.72;5561882;32;33778;-59
2022/05/24 10:17:08;;;;;;;5.00;3.42;;;;;;;20.00;62.05;100025.88;5567842;32;33725;-59
2022/05/24 10:20:27;;;;;;;4.22;2.97;;;;;;;20.11;63.85;100022.28;5566471;32;33705;-59
2022/05/24 10:23:48;;;;;;;4.40;2.53;;;;;;;20.25;60.57;100015.59;5566945;32;33823;-59
2022/05/24 10:27:14;;;;;;;5.43;2.80;;;;;;;20.30;59.63;100020.78;5565444;32;33777;-60
2022/05/24 10:30:24;;;;;;;3.87;3.00;;;;;;;20.40;62.35;100009.34;5549439;32;34269;-59
2022/05/24 10:40:46;;;;;;;13.98;3.37;;;;;;;20.54;60.33;99996.06;5557952;32;33642;-60
2022/05/24 10:43:55;;;;;;;4.05;3.12;;;;;;;20.58;62.45;99991.47;5553735;32;33718;-59
2022/05/24 10:47:22;;;;;;;5.50;3.22;;;;;;;20.67;59.66;99988.53;5568346;32;33413;-59
2022/05/24 10:50:35;;;;;;;4.30;2.83;;;;;;;20.71;60.11;99983.16;5568677;32;33766;-59
2022/05/24 10:53:54;;;;;;;5.60;2.72;;;;;;;20.78;60.09;99983.31;5569414;32;34370;-59
2022/05/24 10:57:14;;;;;;;4.65;3.03;;;;;;;20.86;58.33;99982.28;5568983;32;33644;-59
2022/05/24 11:00:23;;;;;;;7.10;3.00;;;;;;;21.02;60.05;99993.91;5565515;32;33813;-59
2022/05/24 11:03:32;;;;;;;4.85;3.12;;;;;;;20.98;59.67;99995.00;5565256;31;33788;-59
2022/05/24 11:07:06;;;;;;;4.65;3.00;;;;;;;21.03;58.78;99995.50;5566105;32;33936;-59
2022/05/24 11:10:19;;;;;;;4.57;2.90;;;;;;;21.11;58.52;99985.50;5551781;32;34388;-59
2022/05/24 11:13:58;;;;;;;4.20;2.90;;;;;;;21.11;61.63;99983.56;5558645;32;34417;-58
2022/05/24 11:17:01;;;;;;;4.12;3.15;;;;;;;21.12;56.97;99974.25;5568487;32;34111;-58
2022/05/24 11:20:04;;;;;;;4.20;2.97;;;;;;;21.03;58.77;99972.91;5566149;32;33938;-58
2022/05/24 11:23:22;;;;;;;4.90;2.85;;;;;;;20.95;56.21;99963.00;5558962;32;33718;-58
2022/05/24 11:26:28;;;;;;;2.92;2.60;;;;;;;21.07;60.15;99969.09;5565407;32;33666;-58
2022/05/24 11:29:43;;;;;;;4.37;2.53;;;;;;;21.13;56.60;99977.78;5569103;32;33368;-58
2022/05/24 11:32:50;;;;;;;3.72;2.75;;;;;;;21.14;57.93;99965.72;5567959;32;34460;-59
2022/05/24 11:35:53;;;;;;;2.97;2.55;;;;;;;21.15;58.83;99963.78;5565102;32;33938;-58
2022/05/24 11:38:56;;;;;;;3.10;2.75;;;;;;;21.18;58.06;99968.50;5559174;32;33754;-58
2022/05/24 11:42:25;;;;;;;4.65;2.97;;;;;;;21.08;56.84;99957.03;5568037;32;34474;-58
2022/05/24 11:45:34;;;;;;;4.35;2.90;;;;;;;21.10;58.73;99956.69;5567767;32;34358;-58
2022/05/24 11:48:38;;;;;;;3.08;2.55;;;;;;;21.18;61.36;99960.31;5558109;32;33219;-59
2022/05/24 11:51:45;;;;;;;4.57;2.60;;;;;;;21.28;56.69;99951.53;5559057;32;33825;-58
2022/05/24 11:54:47;;;;;;;3.62;2.33;;;;;;;21.38;55.72;99948.25;5568369;32;33860;-59
2022/05/24 11:57:50;;;;;;;6.37;3.55;;;;;;;21.35;57.09;99947.03;5566839;32;33766;-58
2022/05/24 12:00:55;;;;;;;8.27;2.92;;;;;;;21.39;58.46;99949.03;5567436;32;33972;-58
2022/05/24 12:10:55;;;;;;;5.50;3.10;;;;;;;21.62;56.87;99938.13;5562773;32;34582;-58
2022/05/24 12:14:13;;;;;;;5.10;3.30;;;;;;;21.58;57.10;99930.66;5548434;32;33736;-58
2022/05/24 12:17:25;;;;;;;3.78;2.97;;;;;;;21.58;54.12;99927.16;5548659;32;34225;-58
2022/05/24 12:20:33;;;;;;;3.95;3.08;;;;;;;21.50;56.14;99920.81;5548040;32;33820;-59
2022/05/24 12:23:42;;;;;;;4.47;3.03;;;;;;;21.62;56.03;99927.22;5548945;32;34351;-59
2022/05/24 12:27:21;;;;;;;5.95;2.95;;;;;;;21.65;57.29;99938.16;5554499;32;33850;-58
2022/05/24 12:30:23;;;;;;;4.15;3.37;;;;;;;21.66;55.98;99934.31;5554908;32;33673;-59
2022/05/24 12:33:52;;;;;;;4.40;3.08;;;;;;;21.74;57.53;99930.53;5558881;32;33648;-59
2022/05/24 12:36:55;;;;;;;4.85;3.22;;;;;;;21.67;58.18;99922.25;5570267;32;34389;-58
2022/05/24 12:40:21;;;;;;;5.32;3.20;;;;;;;21.71;58.43;99922.28;5570132;32;33644;-58
2022/05/24 12:43:24;;;;;;;6.82;3.60;;;;;;;21.73;57.65;99920.78;5570697;32;34326;-58
2022/05/24 12:46:30;;;;;;;5.12;3.25;;;;;;;21.84;57.42;99931.06;5566647;32;34365;-58
2022/05/24 12:49:39;;;;;;;7.57;3.20;;;;;;;21.83;56.98;99932.22;5550136;32;33662;-58
2022/05/24 12:52:41;;;;;;;6.32;3.12;;;;;;;21.79;54.79;99927.50;5560789;32;33706;-58
2022/05/24 12:55:56;;;;;;;8.43;4.10;;;;;;;21.79;53.94;99910.34;5551200;32;33957;-58
2022/05/24 12:59:10;;;;;;;5.68;3.60;;;;;;;21.84;56.11;99903.78;5561297;32;33788;-58
2022/05/24 13:02:43;;;;;;;7.57;3.20;;;;;;;21.89;56.90;99896.06;5551788;32;34002;-59
2022/05/24 13:05:52;;;;;;;4.87;3.60;;;;;;;21.88;56.06;99899.94;5566385;32;34004;-59
2022/05/24 13:09:13;;;;;;;4.40;3.55;;;;;;;21.89;55.13;99900.75;5570538;32;33771;-58
2022/05/24 13:12:16;;;;;;;3.90;3.28;;;;;;;21.95;56.15;99894.59;5570521;32;34367;-58
2022/05/24 13:15:23;;;;;;;6.28;3.47;;;;;;;21.89;55.02;99895.28;5566173;32;33475;-58
2022/05/24 13:18:32;;;;;;;5.72;3.28;;;;;;;21.76;58.78;99895.50;5569708;32;34193;-58
2022/05/24 13:21:35;;;;;;;6.43;3.40;;;;;;;21.80;57.85;99901.00;5569332;32;34352;-58
2022/05/24 13:24:58;;;;;;;4.95;3.80;;;;;;;21.69;56.83;99909.03;5567185;32;33888;-58
2022/05/24 13:28:04;;;;;;;7.10;3.78;;;;;;;21.74;57.12;99897.78;5562287;32;34942;-58
2022/05/24 13:34:34;;;;;;;5.35;4.00;;;;;;;21.85;58.54;99892.47;5549972;32;33629;-59
2022/05/24 13:37:50;;;;;;;8.82;4.43;;;;;;;21.84;57.25;99896.38;5552625;32;33286;-59
2022/05/24 13:40:56;;;;;;;7.97;3.72;;;;;;;21.75;55.75;99890.38;5569282;32;33830;-58
2022/05/24 13:44:25;;;;;;;6.80;3.53;;;;;;;21.80;57.67;99882.69;5570052;32;33797;-59
2022/05/24 13:47:43;;;;;;;7.12;3.30;;;;;;;21.89;59.46;99881.66;5569773;32;33741;-58
2022/05/24 13:50:45;;;;;;;6.00;3.28;;;;;;;21.89;55.34;99874.25;5568495;32;34234;-58
2022/05/24 13:53:47;;;;;;;7.20;3.45;;;;;;;22.00;55.17;99877.88;5569148;32;33765;-59
2022/05/24 13:56:49;;;;;;;5.95;3.40;;;;;;;22.09;57.26;99880.34;5569782;32;33569;-58
2022/05/24 13:59:59;;;;;;;5.50;3.58;;;;;;;22.22;53.98;99883.69;5568183;32;34301;-59
2022/05/24 14:03:19;;;;;;;6.12;3.30;;;;;;;22.24;54.52;99879.41;5569669;32;34152;-58
2022/05/24 14:06:25;;;;;;;9.82;3.42;;;;;;;22.28;55.10;99876.72;5569330;32;33894;-58
2022/05/24 14:09:28;;;;;;;;;;;;;;;22.28;52.64;99874.78;5568344;32;33741;-58
2022/05/24 14:12:31;;;;;;;6.72;3.40;;;;;;;22.23;54.00;99883.28;5567545;32;33627;-58
2022/05/24 14:15:33;;;;;;;7.18;3.58;;;;;;;22.18;54.10;99880.09;5569177;32;34249;-58
2022/05/24 14:18:36;;;;;;;7.15;3.58;;;;;;;22.12;55.81;99881.53;5569532;32;33622;-58
2022/05/24 14:21:40;;;;;;;6.03;3.37;;;;;;;22.08;55.42;99875.25;5563477;32;34033;-58
2022/05/24 14:24:42;;;;;;;6.47;3.25;;;;;;;22.10;53.94;99884.66;5549722;32;33711;-58
2022/05/24 14:27:44;;;;;;;4.07;3.55;;;;;;;22.12;55.05;99878.81;5558469;32;34329;-58
2022/05/24 14:30:48;;;;;;;5.40;3.30;;;;;;;22.24;55.27;99889.53;5568538;32;34391;-58
2022/05/24 14:33:51;;;;;;;5.15;3.35;;;;;;;22.28;52.88;99885.72;5567651;32;33605;-58
2022/05/24 14:36:56;;;;;;;5.40;3.60;;;;;;;22.30;55.40;99879.87;5563145;31;34425;-58
2022/05/24 14:39:58;;;;;;;5.33;3.33;;;;;;;22.29;53.13;99889.22;5565611;32;34292;-59
2022/05/24 14:43:01;;;;;;;6.12;3.53;;;;;;;22.30;54.43;99890.78;5568887;32;34333;-58
2022/05/24 14:46:03;;;;;;;6.03;3.20;;;;;;;22.34;54.30;99886.16;5565718;32;34318;-58
2022/05/24 14:49:08;;;;;;;5.72;3.78;;;;;;;22.33;54.01;99884.59;5569692;32;34463;-58
2022/05/24 14:52:15;;;;;;;4.30;3.10;;;;;;;22.38;53.25;99884.25;5569394;32;33710;-58
2022/05/24 14:55:25;;;;;;;6.65;3.47;;;;;;;22.41;53.57;99888.97;5550195;32;33734;-58
2022/05/24 14:58:27;;;;;;;5.90;3.58;;;;;;;22.38;54.00;99880.72;5549504;32;34350;-58
2022/05/24 15:01:30;;;;;;;6.85;3.30;;;;;;;22.39;53.43;99891.28;5550001;32;34392;-58
2022/05/24 15:04:34;;;;;;;6.72;2.90;;;;;;;22.37;53.64;99890.09;5566463;32;33460;-59
2022/05/24 15:17:39;;;;;;;4.78;3.25;;;;;;;22.29;52.44;99872.84;5569457;32;34286;-58
2022/05/24 15:20:45;;;;;;;3.55;3.15;;;;;;;22.18;54.75;99880.09;5569356;32;34317;-58
